sensor_id;sensor_type;location;lat;lon;timestamp;temperature;humidity
76537;DHT22;65381;51.254;15.592;2022-12-18T00:01:26;-2.80;68.30
76537;DHT22;65381;51.254;15.592;2022-12-18T00:03:55;-2.80;68.30
76537;DHT22;65381;51.254;15.592;2022-12-18T00:06:24;-2.90;68.30
76537;DHT22;65381;51.254;15.592;2022-12-18T00:08:53;-3.00;68.20
76537;DHT22;65381;51.254;15.592;2022-12-18T00:11:23;-3.20;68.20
76537;DHT22;65381;51.254;15.592;2022-12-18T00:13:51;-3.20;68.40
76537;DHT22;65381;51.254;15.592;2022-12-18T00:16:23;-3.30;68.50
76537;DHT22;65381;51.254;15.592;2022-12-18T00:18:53;-3.30;68.50
76537;DHT22;65381;51.254;15.592;2022-12-18T00:21:22;-3.40;68.60
76537;DHT22;65381;51.254;15.592;2022-12-18T00:23:50;-3.30;68.70
76537;DHT22;65381;51.254;15.592;2022-12-18T00:26:24;-3.30;68.70
76537;DHT22;65381;51.254;15.592;2022-12-18T00:28:59;-3.30;68.60
76537;DHT22;65381;51.254;15.592;2022-12-18T00:31:27;-3.40;68.90
76537;DHT22;65381;51.254;15.592;2022-12-18T00:33:55;-3.20;68.90
76537;DHT22;65381;51.254;15.592;2022-12-18T00:36:27;-3.20;68.70
76537;DHT22;65381;51.254;15.592;2022-12-18T00:38:57;-3.20;68.60
76537;DHT22;65381;51.254;15.592;2022-12-18T00:41:25;-3.20;68.60
76537;DHT22;65381;51.254;15.592;2022-12-18T00:44:09;-3.20;68.70
76537;DHT22;65381;51.254;15.592;2022-12-18T00:46:37;-3.20;68.60
76537;DHT22;65381;51.254;15.592;2022-12-18T00:49:05;-3.30;68.50
76537;DHT22;65381;51.254;15.592;2022-12-18T00:51:35;-3.30;68.70
76537;DHT22;65381;51.254;15.592;2022-12-18T00:54:03;-3.30;68.60
76537;DHT22;65381;51.254;15.592;2022-12-18T00:56:31;-3.40;68.70
76537;DHT22;65381;51.254;15.592;2022-12-18T00:58:58;-3.30;68.80
76537;DHT22;65381;51.254;15.592;2022-12-18T01:01:26;-3.30;68.80
76537;DHT22;65381;51.254;15.592;2022-12-18T01:03:54;-3.20;68.80
76537;DHT22;65381;51.254;15.592;2022-12-18T01:06:22;-3.30;68.70
76537;DHT22;65381;51.254;15.592;2022-12-18T01:08:49;-3.30;68.80
76537;DHT22;65381;51.254;15.592;2022-12-18T01:11:18;-3.30;68.70
76537;DHT22;65381;51.254;15.592;2022-12-18T01:13:46;-3.30;68.80
76537;DHT22;65381;51.254;15.592;2022-12-18T01:16:16;-3.30;68.90
76537;DHT22;65381;51.254;15.592;2022-12-18T01:18:45;-3.20;68.90
76537;DHT22;65381;51.254;15.592;2022-12-18T01:21:15;-3.20;68.80
76537;DHT22;65381;51.254;15.592;2022-12-18T01:23:43;-3.20;68.80
76537;DHT22;65381;51.254;15.592;2022-12-18T01:26:14;-3.20;68.80
76537;DHT22;65381;51.254;15.592;2022-12-18T01:28:43;-3.20;68.80
76537;DHT22;65381;51.254;15.592;2022-12-18T01:31:23;-3.10;68.80
76537;DHT22;65381;51.254;15.592;2022-12-18T01:33:52;-3.10;68.70
76537;DHT22;65381;51.254;15.592;2022-12-18T01:36:22;-3.20;68.70
76537;DHT22;65381;51.254;15.592;2022-12-18T01:38:52;-3.20;68.70
76537;DHT22;65381;51.254;15.592;2022-12-18T01:41:23;-3.20;68.80
76537;DHT22;65381;51.254;15.592;2022-12-18T01:43:53;-3.30;68.90
76537;DHT22;65381;51.254;15.592;2022-12-18T01:46:22;-3.40;69.00
76537;DHT22;65381;51.254;15.592;2022-12-18T01:48:56;-3.30;69.00
76537;DHT22;65381;51.254;15.592;2022-12-18T01:51:28;-3.40;68.90
76537;DHT22;65381;51.254;15.592;2022-12-18T01:53:57;-3.40;68.90
76537;DHT22;65381;51.254;15.592;2022-12-18T01:56:26;-3.50;69.00
76537;DHT22;65381;51.254;15.592;2022-12-18T01:58:59;-3.50;69.20
76537;DHT22;65381;51.254;15.592;2022-12-18T02:01:30;-3.50;69.30
76537;DHT22;65381;51.254;15.592;2022-12-18T02:04:22;-3.50;69.20
76537;DHT22;65381;51.254;15.592;2022-12-18T02:07:05;-3.50;69.30
76537;DHT22;65381;51.254;15.592;2022-12-18T02:09:54;-3.40;69.20
76537;DHT22;65381;51.254;15.592;2022-12-18T02:12:34;-3.40;69.20
76537;DHT22;65381;51.254;15.592;2022-12-18T02:15:15;-3.40;69.20
76537;DHT22;65381;51.254;15.592;2022-12-18T02:17:53;-3.40;69.10
76537;DHT22;65381;51.254;15.592;2022-12-18T02:20:34;-3.40;69.10
76537;DHT22;65381;51.254;15.592;2022-12-18T02:28:36;-3.10;69.00
76537;DHT22;65381;51.254;15.592;2022-12-18T02:31:09;-3.00;68.90
76537;DHT22;65381;51.254;15.592;2022-12-18T02:33:40;-3.00;68.50
76537;DHT22;65381;51.254;15.592;2022-12-18T02:36:10;-3.10;68.50
76537;DHT22;65381;51.254;15.592;2022-12-18T02:38:39;-3.20;68.80
76537;DHT22;65381;51.254;15.592;2022-12-18T02:41:13;-3.20;68.90
76537;DHT22;65381;51.254;15.592;2022-12-18T02:44:07;-3.10;69.00
76537;DHT22;65381;51.254;15.592;2022-12-18T02:46:37;-3.10;69.00
76537;DHT22;65381;51.254;15.592;2022-12-18T03:00:27;-2.90;68.80
76537;DHT22;65381;51.254;15.592;2022-12-18T03:03:11;-2.90;68.60
76537;DHT22;65381;51.254;15.592;2022-12-18T03:05:56;-3.10;68.60
76537;DHT22;65381;51.254;15.592;2022-12-18T03:08:27;-3.20;68.80
76537;DHT22;65381;51.254;15.592;2022-12-18T03:11:02;-3.20;68.90
76537;DHT22;65381;51.254;15.592;2022-12-18T03:16:12;-3.30;69.20
76537;DHT22;65381;51.254;15.592;2022-12-18T03:19:07;-3.20;69.30
76537;DHT22;65381;51.254;15.592;2022-12-18T03:21:42;-3.10;69.20
76537;DHT22;65381;51.254;15.592;2022-12-18T03:24:15;-3.10;69.00
76537;DHT22;65381;51.254;15.592;2022-12-18T03:26:49;-3.10;69.00
76537;DHT22;65381;51.254;15.592;2022-12-18T03:29:22;-3.20;69.00
76537;DHT22;65381;51.254;15.592;2022-12-18T03:31:55;-3.20;69.00
76537;DHT22;65381;51.254;15.592;2022-12-18T03:34:30;-3.20;69.10
76537;DHT22;65381;51.254;15.592;2022-12-18T03:37:04;-3.30;69.10
76537;DHT22;65381;51.254;15.592;2022-12-18T03:39:34;-3.40;69.30
76537;DHT22;65381;51.254;15.592;2022-12-18T03:42:16;-3.30;69.40
76537;DHT22;65381;51.254;15.592;2022-12-18T03:47:55;-3.00;69.30
76537;DHT22;65381;51.254;15.592;2022-12-18T03:50:22;-3.00;69.00
76537;DHT22;65381;51.254;15.592;2022-12-18T03:53:08;-3.00;69.00
76537;DHT22;65381;51.254;15.592;2022-12-18T03:55:39;-3.10;69.00
76537;DHT22;65381;51.254;15.592;2022-12-18T03:58:08;-3.10;69.20
76537;DHT22;65381;51.254;15.592;2022-12-18T04:00:52;-3.20;69.10
76537;DHT22;65381;51.254;15.592;2022-12-18T04:03:21;-3.20;69.20
76537;DHT22;65381;51.254;15.592;2022-12-18T04:05:54;-3.30;69.10
76537;DHT22;65381;51.254;15.592;2022-12-18T04:08:24;-3.40;69.20
76537;DHT22;65381;51.254;15.592;2022-12-18T04:11:01;-3.40;69.40
76537;DHT22;65381;51.254;15.592;2022-12-18T04:13:37;-3.30;69.40
76537;DHT22;65381;51.254;15.592;2022-12-18T04:16:10;-3.30;69.30
76537;DHT22;65381;51.254;15.592;2022-12-18T04:18:41;-3.30;69.30
76537;DHT22;65381;51.254;15.592;2022-12-18T04:21:10;-3.30;69.30
76537;DHT22;65381;51.254;15.592;2022-12-18T04:23:37;-3.40;69.40
76537;DHT22;65381;51.254;15.592;2022-12-18T04:26:06;-3.40;69.30
76537;DHT22;65381;51.254;15.592;2022-12-18T04:28:48;-3.50;69.30
76537;DHT22;65381;51.254;15.592;2022-12-18T04:31:16;-3.50;69.30
76537;DHT22;65381;51.254;15.592;2022-12-18T04:33:44;-3.50;69.50
76537;DHT22;65381;51.254;15.592;2022-12-18T04:36:12;-3.50;69.40
76537;DHT22;65381;51.254;15.592;2022-12-18T04:38:41;-3.50;69.40
76537;DHT22;65381;51.254;15.592;2022-12-18T04:41:12;-3.50;69.40
76537;DHT22;65381;51.254;15.592;2022-12-18T04:43:41;-3.50;69.40
76537;DHT22;65381;51.254;15.592;2022-12-18T04:46:10;-3.50;69.30
76537;DHT22;65381;51.254;15.592;2022-12-18T04:48:39;-3.50;69.30
76537;DHT22;65381;51.254;15.592;2022-12-18T04:51:06;-3.50;69.40
76537;DHT22;65381;51.254;15.592;2022-12-18T04:53:34;-3.40;69.30
76537;DHT22;65381;51.254;15.592;2022-12-18T04:58:31;-3.40;69.00
76537;DHT22;65381;51.254;15.592;2022-12-18T05:00:59;-3.50;69.10
76537;DHT22;65381;51.254;15.592;2022-12-18T05:03:27;-3.50;69.30
76537;DHT22;65381;51.254;15.592;2022-12-18T05:05:54;-3.50;69.40
76537;DHT22;65381;51.254;15.592;2022-12-18T05:08:22;-3.50;69.40
76537;DHT22;65381;51.254;15.592;2022-12-18T05:10:58;-3.50;69.20
76537;DHT22;65381;51.254;15.592;2022-12-18T05:13:27;-3.50;69.20
76537;DHT22;65381;51.254;15.592;2022-12-18T05:15:55;-3.60;69.20
76537;DHT22;65381;51.254;15.592;2022-12-18T05:18:24;-3.60;69.20
76537;DHT22;65381;51.254;15.592;2022-12-18T05:20:53;-3.70;69.20
76537;DHT22;65381;51.254;15.592;2022-12-18T05:23:22;-3.70;69.30
76537;DHT22;65381;51.254;15.592;2022-12-18T05:25:54;-3.80;69.20
76537;DHT22;65381;51.254;15.592;2022-12-18T05:28:23;-3.80;69.40
76537;DHT22;65381;51.254;15.592;2022-12-18T05:30:53;-3.80;69.40
76537;DHT22;65381;51.254;15.592;2022-12-18T05:33:23;-3.80;69.40
76537;DHT22;65381;51.254;15.592;2022-12-18T05:35:52;-3.80;69.30
76537;DHT22;65381;51.254;15.592;2022-12-18T05:38:21;-3.80;69.30
76537;DHT22;65381;51.254;15.592;2022-12-18T05:40:50;-3.80;69.40
76537;DHT22;65381;51.254;15.592;2022-12-18T05:43:19;-3.60;69.40
76537;DHT22;65381;51.254;15.592;2022-12-18T05:45:49;-3.60;69.30
76537;DHT22;65381;51.254;15.592;2022-12-18T05:48:18;-3.60;69.30
76537;DHT22;65381;51.254;15.592;2022-12-18T05:50:47;-3.60;69.30
76537;DHT22;65381;51.254;15.592;2022-12-18T05:53:16;-3.50;69.10
76537;DHT22;65381;51.254;15.592;2022-12-18T05:55:44;-3.50;69.00
76537;DHT22;65381;51.254;15.592;2022-12-18T05:58:13;-3.60;69.00
76537;DHT22;65381;51.254;15.592;2022-12-18T06:00:43;-3.60;69.00
76537;DHT22;65381;51.254;15.592;2022-12-18T06:03:12;-3.70;69.00
76537;DHT22;65381;51.254;15.592;2022-12-18T06:05:45;-3.80;69.00
76537;DHT22;65381;51.254;15.592;2022-12-18T06:08:13;-4.00;69.10
76537;DHT22;65381;51.254;15.592;2022-12-18T06:10:41;-4.00;69.20
76537;DHT22;65381;51.254;15.592;2022-12-18T06:13:09;-4.10;69.40
76537;DHT22;65381;51.254;15.592;2022-12-18T06:15:37;-4.10;69.40
76537;DHT22;65381;51.254;15.592;2022-12-18T06:18:05;-4.00;69.40
76537;DHT22;65381;51.254;15.592;2022-12-18T06:20:33;-4.00;69.30
76537;DHT22;65381;51.254;15.592;2022-12-18T06:23:00;-4.00;69.30
76537;DHT22;65381;51.254;15.592;2022-12-18T06:25:28;-4.00;69.00
76537;DHT22;65381;51.254;15.592;2022-12-18T06:27:56;-4.00;69.20
76537;DHT22;65381;51.254;15.592;2022-12-18T06:30:23;-4.00;69.00
76537;DHT22;65381;51.254;15.592;2022-12-18T06:32:51;-4.00;69.00
76537;DHT22;65381;51.254;15.592;2022-12-18T06:35:23;-4.00;68.90
76537;DHT22;65381;51.254;15.592;2022-12-18T06:37:51;-4.10;69.00
76537;DHT22;65381;51.254;15.592;2022-12-18T06:40:20;-4.20;69.00
76537;DHT22;65381;51.254;15.592;2022-12-18T06:42:48;-4.20;69.10
76537;DHT22;65381;51.254;15.592;2022-12-18T06:45:17;-4.30;69.10
76537;DHT22;65381;51.254;15.592;2022-12-18T06:47:44;-4.40;69.10
76537;DHT22;65381;51.254;15.592;2022-12-18T06:50:12;-4.30;69.30
76537;DHT22;65381;51.254;15.592;2022-12-18T06:52:40;-4.30;69.20
76537;DHT22;65381;51.254;15.592;2022-12-18T06:55:08;-4.20;69.30
76537;DHT22;65381;51.254;15.592;2022-12-18T06:57:36;-4.10;69.30
76537;DHT22;65381;51.254;15.592;2022-12-18T07:00:06;-4.10;69.20
76537;DHT22;65381;51.254;15.592;2022-12-18T07:02:34;-4.10;69.10
76537;DHT22;65381;51.254;15.592;2022-12-18T07:05:03;-4.20;69.00
76537;DHT22;65381;51.254;15.592;2022-12-18T07:07:36;-4.20;69.10
76537;DHT22;65381;51.254;15.592;2022-12-18T07:10:04;-4.20;69.10
76537;DHT22;65381;51.254;15.592;2022-12-18T07:12:32;-4.20;69.10
76537;DHT22;65381;51.254;15.592;2022-12-18T07:15:00;-4.10;69.10
76537;DHT22;65381;51.254;15.592;2022-12-18T07:17:28;-4.20;69.00
76537;DHT22;65381;51.254;15.592;2022-12-18T07:19:56;-4.20;69.20
76537;DHT22;65381;51.254;15.592;2022-12-18T07:22:25;-4.10;69.20
76537;DHT22;65381;51.254;15.592;2022-12-18T07:24:53;-4.10;69.20
76537;DHT22;65381;51.254;15.592;2022-12-18T07:27:22;-4.10;69.30
76537;DHT22;65381;51.254;15.592;2022-12-18T07:29:51;-4.00;69.40
76537;DHT22;65381;51.254;15.592;2022-12-18T07:32:18;-3.90;69.20
76537;DHT22;65381;51.254;15.592;2022-12-18T07:34:46;-3.80;69.10
76537;DHT22;65381;51.254;15.592;2022-12-18T07:37:13;-3.80;69.20
76537;DHT22;65381;51.254;15.592;2022-12-18T07:39:41;-3.80;69.20
76537;DHT22;65381;51.254;15.592;2022-12-18T07:42:08;-3.80;69.30
76537;DHT22;65381;51.254;15.592;2022-12-18T07:44:51;-3.80;69.20
76537;DHT22;65381;51.254;15.592;2022-12-18T07:47:18;-3.90;69.20
76537;DHT22;65381;51.254;15.592;2022-12-18T07:49:46;-4.00;69.10
76537;DHT22;65381;51.254;15.592;2022-12-18T07:52:13;-4.00;69.10
76537;DHT22;65381;51.254;15.592;2022-12-18T07:54:42;-4.10;69.10
76537;DHT22;65381;51.254;15.592;2022-12-18T07:57:09;-4.10;69.30
76537;DHT22;65381;51.254;15.592;2022-12-18T07:59:58;-4.10;69.30
76537;DHT22;65381;51.254;15.592;2022-12-18T08:02:26;-4.00;69.10
76537;DHT22;65381;51.254;15.592;2022-12-18T08:04:54;-4.00;69.00
76537;DHT22;65381;51.254;15.592;2022-12-18T08:07:21;-4.10;68.90
76537;DHT22;65381;51.254;15.592;2022-12-18T08:09:49;-4.20;69.10
76537;DHT22;65381;51.254;15.592;2022-12-18T08:12:17;-4.20;69.10
76537;DHT22;65381;51.254;15.592;2022-12-18T08:14:44;-4.20;69.30
76537;DHT22;65381;51.254;15.592;2022-12-18T08:17:12;-4.20;69.30
76537;DHT22;65381;51.254;15.592;2022-12-18T08:19:40;-4.10;69.30
76537;DHT22;65381;51.254;15.592;2022-12-18T08:22:09;-4.20;69.40
76537;DHT22;65381;51.254;15.592;2022-12-18T08:24:36;-4.10;69.50
76537;DHT22;65381;51.254;15.592;2022-12-18T08:27:04;-4.10;69.30
76537;DHT22;65381;51.254;15.592;2022-12-18T08:29:51;-4.20;69.20
76537;DHT22;65381;51.254;15.592;2022-12-18T08:32:19;-4.20;69.40
76537;DHT22;65381;51.254;15.592;2022-12-18T08:34:47;-4.10;69.50
76537;DHT22;65381;51.254;15.592;2022-12-18T08:37:14;-4.00;69.50
76537;DHT22;65381;51.254;15.592;2022-12-18T08:39:42;-3.90;69.50
76537;DHT22;65381;51.254;15.592;2022-12-18T08:42:10;-3.80;69.50
76537;DHT22;65381;51.254;15.592;2022-12-18T08:44:52;-3.70;69.40
76537;DHT22;65381;51.254;15.592;2022-12-18T08:47:19;-3.70;69.00
76537;DHT22;65381;51.254;15.592;2022-12-18T08:49:47;-3.80;69.00
76537;DHT22;65381;51.254;15.592;2022-12-18T08:52:15;-3.80;69.30
76537;DHT22;65381;51.254;15.592;2022-12-18T08:54:43;-3.70;69.50
76537;DHT22;65381;51.254;15.592;2022-12-18T08:57:11;-3.70;69.30
76537;DHT22;65381;51.254;15.592;2022-12-18T08:59:38;-3.80;69.40
76537;DHT22;65381;51.254;15.592;2022-12-18T09:02:07;-3.80;69.40
76537;DHT22;65381;51.254;15.592;2022-12-18T09:04:39;-3.80;69.50
76537;DHT22;65381;51.254;15.592;2022-12-18T09:07:07;-3.80;69.40
76537;DHT22;65381;51.254;15.592;2022-12-18T09:09:35;-4.00;69.50
76537;DHT22;65381;51.254;15.592;2022-12-18T09:12:03;-3.80;69.80
76537;DHT22;65381;51.254;15.592;2022-12-18T09:14:31;-3.60;69.80
76537;DHT22;65381;51.254;15.592;2022-12-18T09:16:59;-3.50;69.60
76537;DHT22;65381;51.254;15.592;2022-12-18T09:19:27;-3.40;69.30
76537;DHT22;65381;51.254;15.592;2022-12-18T09:21:54;-3.50;68.90
76537;DHT22;65381;51.254;15.592;2022-12-18T09:24:22;-3.70;69.10
76537;DHT22;65381;51.254;15.592;2022-12-18T09:26:53;-3.80;69.30
76537;DHT22;65381;51.254;15.592;2022-12-18T09:29:24;-3.80;69.40
76537;DHT22;65381;51.254;15.592;2022-12-18T09:31:53;-3.70;69.60
76537;DHT22;65381;51.254;15.592;2022-12-18T09:34:21;-3.60;69.60
76537;DHT22;65381;51.254;15.592;2022-12-18T09:36:50;-3.60;69.50
76537;DHT22;65381;51.254;15.592;2022-12-18T09:39:19;-3.60;69.00
76537;DHT22;65381;51.254;15.592;2022-12-18T09:41:54;-3.60;69.00
76537;DHT22;65381;51.254;15.592;2022-12-18T09:47:03;-3.60;69.20
76537;DHT22;65381;51.254;15.592;2022-12-18T09:49:37;-3.60;69.10
76537;DHT22;65381;51.254;15.592;2022-12-18T09:55:11;-3.60;69.30
76537;DHT22;65381;51.254;15.592;2022-12-18T09:57:46;-3.50;69.30
76537;DHT22;65381;51.254;15.592;2022-12-18T10:00:22;-3.40;69.30
76537;DHT22;65381;51.254;15.592;2022-12-18T10:02:51;-3.30;69.10
76537;DHT22;65381;51.254;15.592;2022-12-18T10:08:13;-3.20;68.50
76537;DHT22;65381;51.254;15.592;2022-12-18T10:10:53;-3.30;68.50
76537;DHT22;65381;51.254;15.592;2022-12-18T10:13:31;-3.40;68.50
76537;DHT22;65381;51.254;15.592;2022-12-18T10:21:26;-3.10;69.00
76537;DHT22;65381;51.254;15.592;2022-12-18T10:24:19;-2.90;68.70
76537;DHT22;65381;51.254;15.592;2022-12-18T10:26:49;-2.80;69.10
76537;DHT22;65381;51.254;15.592;2022-12-18T10:29:16;-2.50;69.10
76537;DHT22;65381;51.254;15.592;2022-12-18T10:31:46;-2.50;68.60
76537;DHT22;65381;51.254;15.592;2022-12-18T10:34:14;-2.70;68.30
76537;DHT22;65381;51.254;15.592;2022-12-18T10:36:42;-2.90;68.60
76537;DHT22;65381;51.254;15.592;2022-12-18T10:41:50;-2.90;69.00
76537;DHT22;65381;51.254;15.592;2022-12-18T10:44:27;-2.80;68.90
76537;DHT22;65381;51.254;15.592;2022-12-18T10:47:03;-2.90;68.80
76537;DHT22;65381;51.254;15.592;2022-12-18T10:49:46;-2.90;68.40
76537;DHT22;65381;51.254;15.592;2022-12-18T10:52:21;-3.10;68.60
76537;DHT22;65381;51.254;15.592;2022-12-18T10:55:02;-2.90;69.00
76537;DHT22;65381;51.254;15.592;2022-12-18T10:57:39;-2.90;68.40
76537;DHT22;65381;51.254;15.592;2022-12-18T11:00:26;-3.10;68.20
76537;DHT22;65381;51.254;15.592;2022-12-18T11:02:55;-3.10;69.00
76537;DHT22;65381;51.254;15.592;2022-12-18T11:07:59;-2.80;68.70
76537;DHT22;65381;51.254;15.592;2022-12-18T11:15:44;-2.60;68.80
76537;DHT22;65381;51.254;15.592;2022-12-18T11:18:22;-2.30;69.20
76537;DHT22;65381;51.254;15.592;2022-12-18T11:21:06;-2.10;69.20
76537;DHT22;65381;51.254;15.592;2022-12-18T11:23:37;-1.90;68.90
76537;DHT22;65381;51.254;15.592;2022-12-18T11:26:11;-1.70;69.10
76537;DHT22;65381;51.254;15.592;2022-12-18T11:29:18;-1.30;69.00
76537;DHT22;65381;51.254;15.592;2022-12-18T11:31:49;-1.20;68.20
76537;DHT22;65381;51.254;15.592;2022-12-18T11:34:27;-1.20;67.90
76537;DHT22;65381;51.254;15.592;2022-12-18T11:36:58;-1.10;68.40
76537;DHT22;65381;51.254;15.592;2022-12-18T11:40:01;-1.10;68.10
76537;DHT22;65381;51.254;15.592;2022-12-18T11:42:54;-1.00;68.70
76537;DHT22;65381;51.254;15.592;2022-12-18T11:45:29;-0.50;68.90
76537;DHT22;65381;51.254;15.592;2022-12-18T11:48:01;0.00;68.90
76537;DHT22;65381;51.254;15.592;2022-12-18T11:50:45;0.20;68.10
76537;DHT22;65381;51.254;15.592;2022-12-18T11:53:15;0.40;68.40
76537;DHT22;65381;51.254;15.592;2022-12-18T11:58:48;0.60;67.80
76537;DHT22;65381;51.254;15.592;2022-12-18T12:01:30;1.00;68.50
76537;DHT22;65381;51.254;15.592;2022-12-18T12:17:49;6.60;64.80
76537;DHT22;65381;51.254;15.592;2022-12-18T12:26:06;7.20;64.90
76537;DHT22;65381;51.254;15.592;2022-12-18T12:39:52;8.00;62.90
76537;DHT22;65381;51.254;15.592;2022-12-18T12:42:38;8.40;61.90
76537;DHT22;65381;51.254;15.592;2022-12-18T12:46:14;8.90;61.70
76537;DHT22;65381;51.254;15.592;2022-12-18T12:50:56;9.50;59.90
76537;DHT22;65381;51.254;15.592;2022-12-18T12:53:31;9.60;59.50
76537;DHT22;65381;51.254;15.592;2022-12-18T12:56:01;9.50;59.50
76537;DHT22;65381;51.254;15.592;2022-12-18T13:07:08;9.20;59.70
76537;DHT22;65381;51.254;15.592;2022-12-18T13:13:05;9.30;59.60
76537;DHT22;65381;51.254;15.592;2022-12-18T13:16:07;9.30;60.00
76537;DHT22;65381;51.254;15.592;2022-12-18T13:18:35;9.20;59.50
76537;DHT22;65381;51.254;15.592;2022-12-18T13:21:21;8.70;59.20
76537;DHT22;65381;51.254;15.592;2022-12-18T13:23:53;8.00;59.70
76537;DHT22;65381;51.254;15.592;2022-12-18T13:28:57;6.90;60.30
76537;DHT22;65381;51.254;15.592;2022-12-18T13:34:27;5.70;61.80
76537;DHT22;65381;51.254;15.592;2022-12-18T13:40:00;5.10;62.30
76537;DHT22;65381;51.254;15.592;2022-12-18T13:46:27;4.40;62.60
76537;DHT22;65381;51.254;15.592;2022-12-18T13:48:24;4.20;63.20
76537;DHT22;65381;51.254;15.592;2022-12-18T13:51:00;3.90;63.60
76537;DHT22;65381;51.254;15.592;2022-12-18T13:53:39;3.60;64.00
76537;DHT22;65381;51.254;15.592;2022-12-18T13:56:15;3.30;63.20
76537;DHT22;65381;51.254;15.592;2022-12-18T13:58:43;2.70;64.00
76537;DHT22;65381;51.254;15.592;2022-12-18T14:01:22;2.30;63.70
76537;DHT22;65381;51.254;15.592;2022-12-18T14:03:50;1.70;63.60
76537;DHT22;65381;51.254;15.592;2022-12-18T14:06:21;1.10;63.70
76537;DHT22;65381;51.254;15.592;2022-12-18T14:08:49;0.60;63.70
76537;DHT22;65381;51.254;15.592;2022-12-18T14:11:22;0.00;64.10
76537;DHT22;65381;51.254;15.592;2022-12-18T14:13:53;-0.50;64.70
76537;DHT22;65381;51.254;15.592;2022-12-18T14:16:22;-1.00;65.10
76537;DHT22;65381;51.254;15.592;2022-12-18T14:18:56;-1.50;65.40
76537;DHT22;65381;51.254;15.592;2022-12-18T14:21:39;-1.90;65.80
76537;DHT22;65381;51.254;15.592;2022-12-18T14:24:21;-2.40;66.20
76537;DHT22;65381;51.254;15.592;2022-12-18T14:26:50;-2.90;66.70
76537;DHT22;65381;51.254;15.592;2022-12-18T14:29:24;-3.20;67.10
76537;DHT22;65381;51.254;15.592;2022-12-18T14:34:41;-3.80;67.70
76537;DHT22;65381;51.254;15.592;2022-12-18T14:37:14;-4.00;67.90
76537;DHT22;65381;51.254;15.592;2022-12-18T14:39:56;-4.20;68.00
76537;DHT22;65381;51.254;15.592;2022-12-18T14:42:26;-4.40;68.20
76537;DHT22;65381;51.254;15.592;2022-12-18T14:47:50;-4.60;68.00
76537;DHT22;65381;51.254;15.592;2022-12-18T14:50:19;-4.80;68.00
76537;DHT22;65381;51.254;15.592;2022-12-18T14:52:47;-4.90;68.00
76537;DHT22;65381;51.254;15.592;2022-12-18T14:55:16;-5.00;68.00
76537;DHT22;65381;51.254;15.592;2022-12-18T14:57:45;-5.10;68.00
76537;DHT22;65381;51.254;15.592;2022-12-18T15:00:18;-5.20;68.00
76537;DHT22;65381;51.254;15.592;2022-12-18T15:02:55;-5.20;68.10
76537;DHT22;65381;51.254;15.592;2022-12-18T15:05:30;-5.40;68.20
76537;DHT22;65381;51.254;15.592;2022-12-18T15:07:59;-5.40;68.10
76537;DHT22;65381;51.254;15.592;2022-12-18T15:10:30;-5.60;68.10
76537;DHT22;65381;51.254;15.592;2022-12-18T15:20:50;-5.80;67.80
76537;DHT22;65381;51.254;15.592;2022-12-18T15:26:06;-6.00;67.70
76537;DHT22;65381;51.254;15.592;2022-12-18T15:28:38;-6.00;67.60
76537;DHT22;65381;51.254;15.592;2022-12-18T15:31:35;-6.10;67.60
76537;DHT22;65381;51.254;15.592;2022-12-18T15:34:11;-6.10;67.50
76537;DHT22;65381;51.254;15.592;2022-12-18T15:36:40;-6.20;67.50
76537;DHT22;65381;51.254;15.592;2022-12-18T15:39:11;-6.20;67.50
76537;DHT22;65381;51.254;15.592;2022-12-18T15:41:39;-6.30;67.50
76537;DHT22;65381;51.254;15.592;2022-12-18T15:44:22;-6.30;67.50
76537;DHT22;65381;51.254;15.592;2022-12-18T15:46:50;-6.30;67.50
76537;DHT22;65381;51.254;15.592;2022-12-18T15:49:17;-6.40;67.50
76537;DHT22;65381;51.254;15.592;2022-12-18T15:51:52;-6.50;67.50
76537;DHT22;65381;51.254;15.592;2022-12-18T15:54:21;-6.50;67.50
76537;DHT22;65381;51.254;15.592;2022-12-18T15:57:10;-6.50;67.50
76537;DHT22;65381;51.254;15.592;2022-12-18T15:59:55;-6.60;67.40
76537;DHT22;65381;51.254;15.592;2022-12-18T16:02:26;-6.60;67.30
76537;DHT22;65381;51.254;15.592;2022-12-18T16:04:57;-6.60;67.30
76537;DHT22;65381;51.254;15.592;2022-12-18T16:07:25;-6.70;67.20
76537;DHT22;65381;51.254;15.592;2022-12-18T16:09:57;-6.70;67.10
76537;DHT22;65381;51.254;15.592;2022-12-18T16:12:28;-6.70;67.10
76537;DHT22;65381;51.254;15.592;2022-12-18T16:14:56;-6.80;67.00
76537;DHT22;65381;51.254;15.592;2022-12-18T16:17:26;-6.90;67.20
76537;DHT22;65381;51.254;15.592;2022-12-18T16:19:54;-6.90;67.20
76537;DHT22;65381;51.254;15.592;2022-12-18T16:22:27;-7.00;67.20
76537;DHT22;65381;51.254;15.592;2022-12-18T16:24:56;-7.00;67.10
76537;DHT22;65381;51.254;15.592;2022-12-18T16:27:24;-7.10;67.10
76537;DHT22;65381;51.254;15.592;2022-12-18T16:29:52;-7.10;67.20
76537;DHT22;65381;51.254;15.592;2022-12-18T16:32:21;-7.10;67.20
76537;DHT22;65381;51.254;15.592;2022-12-18T16:34:51;-7.10;67.20
76537;DHT22;65381;51.254;15.592;2022-12-18T16:37:18;-7.10;67.10
76537;DHT22;65381;51.254;15.592;2022-12-18T16:39:46;-7.10;67.00
76537;DHT22;65381;51.254;15.592;2022-12-18T16:42:18;-7.10;66.90
76537;DHT22;65381;51.254;15.592;2022-12-18T16:44:50;-7.20;66.90
76537;DHT22;65381;51.254;15.592;2022-12-18T16:47:18;-7.30;66.70
76537;DHT22;65381;51.254;15.592;2022-12-18T16:49:48;-7.30;66.60
76537;DHT22;65381;51.254;15.592;2022-12-18T16:52:19;-7.30;66.70
76537;DHT22;65381;51.254;15.592;2022-12-18T16:54:47;-7.40;66.70
76537;DHT22;65381;51.254;15.592;2022-12-18T16:57:18;-7.40;66.70
76537;DHT22;65381;51.254;15.592;2022-12-18T16:59:47;-7.40;66.70
76537;DHT22;65381;51.254;15.592;2022-12-18T17:02:21;-7.50;66.70
76537;DHT22;65381;51.254;15.592;2022-12-18T17:04:53;-7.50;66.70
76537;DHT22;65381;51.254;15.592;2022-12-18T17:07:23;-7.50;66.70
76537;DHT22;65381;51.254;15.592;2022-12-18T17:09:52;-7.50;66.60
76537;DHT22;65381;51.254;15.592;2022-12-18T17:12:20;-7.60;66.60
76537;DHT22;65381;51.254;15.592;2022-12-18T17:14:48;-7.60;66.50
76537;DHT22;65381;51.254;15.592;2022-12-18T17:17:17;-7.60;66.50
76537;DHT22;65381;51.254;15.592;2022-12-18T17:19:48;-7.60;66.40
76537;DHT22;65381;51.254;15.592;2022-12-18T17:22:17;-7.70;66.20
76537;DHT22;65381;51.254;15.592;2022-12-18T17:24:46;-7.80;66.20
76537;DHT22;65381;51.254;15.592;2022-12-18T17:27:15;-7.90;66.10
76537;DHT22;65381;51.254;15.592;2022-12-18T17:29:44;-7.90;66.10
76537;DHT22;65381;51.254;15.592;2022-12-18T17:32:15;-8.10;66.20
76537;DHT22;65381;51.254;15.592;2022-12-18T17:34:43;-8.10;66.20
76537;DHT22;65381;51.254;15.592;2022-12-18T17:37:11;-8.10;66.30
76537;DHT22;65381;51.254;15.592;2022-12-18T17:39:39;-8.10;66.30
76537;DHT22;65381;51.254;15.592;2022-12-18T17:42:06;-8.20;66.30
76537;DHT22;65381;51.254;15.592;2022-12-18T17:44:42;-8.20;66.30
76537;DHT22;65381;51.254;15.592;2022-12-18T17:47:11;-8.20;66.20
76537;DHT22;65381;51.254;15.592;2022-12-18T17:49:39;-8.30;66.20
76537;DHT22;65381;51.254;15.592;2022-12-18T17:52:07;-8.30;66.20